sensor_id;sensor_type;location;lat;lon;timestamp;temperature;humidity
52209;DHT22;38507;53.132;6.394;2023-03-14T00:01:14;8.80;99.90
52209;DHT22;38507;53.132;6.394;2023-03-14T00:03:40;9.00;99.90
52209;DHT22;38507;53.132;6.394;2023-03-14T00:06:07;8.90;99.90
52209;DHT22;38507;53.132;6.394;2023-03-14T00:08:32;9.00;99.90
52209;DHT22;38507;53.132;6.394;2023-03-14T00:11:04;9.10;99.90
52209;DHT22;38507;53.132;6.394;2023-03-14T00:13:30;9.90;99.90
52209;DHT22;38507;53.132;6.394;2023-03-14T00:16:08;9.30;99.90
52209;DHT22;38507;53.132;6.394;2023-03-14T00:18:35;9.30;99.90
52209;DHT22;38507;53.132;6.394;2023-03-14T00:21:01;10.00;99.90
52209;DHT22;38507;53.132;6.394;2023-03-14T00:23:28;9.40;99.90
52209;DHT22;38507;53.132;6.394;2023-03-14T00:25:59;10.10;99.90
52209;DHT22;38507;53.132;6.394;2023-03-14T00:28:25;10.10;99.90
52209;DHT22;38507;53.132;6.394;2023-03-14T00:30:50;9.40;99.90
52209;DHT22;38507;53.132;6.394;2023-03-14T00:33:16;9.50;99.90
52209;DHT22;38507;53.132;6.394;2023-03-14T00:35:42;9.50;99.90
52209;DHT22;38507;53.132;6.394;2023-03-14T00:38:07;9.50;99.90
52209;DHT22;38507;53.132;6.394;2023-03-14T00:40:33;9.50;99.90
52209;DHT22;38507;53.132;6.394;2023-03-14T00:42:58;9.50;99.90
52209;DHT22;38507;53.132;6.394;2023-03-14T00:45:24;10.10;99.90
52209;DHT22;38507;53.132;6.394;2023-03-14T00:47:50;9.50;99.90
52209;DHT22;38507;53.132;6.394;2023-03-14T00:50:15;9.50;99.90
52209;DHT22;38507;53.132;6.394;2023-03-14T00:52:41;9.50;99.90
52209;DHT22;38507;53.132;6.394;2023-03-14T00:55:07;9.50;99.90
52209;DHT22;38507;53.132;6.394;2023-03-14T00:57:32;9.50;99.90
52209;DHT22;38507;53.132;6.394;2023-03-14T00:59:58;9.50;99.90
52209;DHT22;38507;53.132;6.394;2023-03-14T01:02:24;9.70;99.90
52209;DHT22;38507;53.132;6.394;2023-03-14T01:04:49;10.10;99.90
52209;DHT22;38507;53.132;6.394;2023-03-14T01:07:16;9.60;99.90
52209;DHT22;38507;53.132;6.394;2023-03-14T01:09:41;9.60;99.90
52209;DHT22;38507;53.132;6.394;2023-03-14T01:12:07;9.60;99.90
52209;DHT22;38507;53.132;6.394;2023-03-14T01:14:32;9.60;99.90
52209;DHT22;38507;53.132;6.394;2023-03-14T01:16:58;9.70;99.90
52209;DHT22;38507;53.132;6.394;2023-03-14T01:19:28;10.30;99.90
52209;DHT22;38507;53.132;6.394;2023-03-14T01:21:54;9.70;99.90
52209;DHT22;38507;53.132;6.394;2023-03-14T01:24:19;10.30;99.90
52209;DHT22;38507;53.132;6.394;2023-03-14T01:26:45;10.00;99.90
52209;DHT22;38507;53.132;6.394;2023-03-14T01:29:11;9.80;99.90
52209;DHT22;38507;53.132;6.394;2023-03-14T01:31:37;9.80;99.90
52209;DHT22;38507;53.132;6.394;2023-03-14T01:34:02;10.00;99.90
52209;DHT22;38507;53.132;6.394;2023-03-14T01:36:28;10.00;99.90
52209;DHT22;38507;53.132;6.394;2023-03-14T01:38:54;10.30;99.90
52209;DHT22;38507;53.132;6.394;2023-03-14T01:41:22;10.30;99.90
52209;DHT22;38507;53.132;6.394;2023-03-14T01:43:49;10.10;99.90
52209;DHT22;38507;53.132;6.394;2023-03-14T01:46:19;10.00;99.90
52209;DHT22;38507;53.132;6.394;2023-03-14T01:48:59;10.00;99.90
52209;DHT22;38507;53.132;6.394;2023-03-14T01:51:41;10.00;99.90
52209;DHT22;38507;53.132;6.394;2023-03-14T01:54:22;10.00;99.90
52209;DHT22;38507;53.132;6.394;2023-03-14T01:59:30;10.10;99.90
52209;DHT22;38507;53.132;6.394;2023-03-14T02:01:57;10.40;99.90
52209;DHT22;38507;53.132;6.394;2023-03-14T02:04:23;10.30;99.90
52209;DHT22;38507;53.132;6.394;2023-03-14T02:06:57;9.90;99.90
52209;DHT22;38507;53.132;6.394;2023-03-14T02:09:24;9.90;99.90
52209;DHT22;38507;53.132;6.394;2023-03-14T02:11:50;9.90;99.90
52209;DHT22;38507;53.132;6.394;2023-03-14T02:14:27;10.30;99.90
52209;DHT22;38507;53.132;6.394;2023-03-14T02:16:54;9.90;99.90
52209;DHT22;38507;53.132;6.394;2023-03-14T02:19:29;9.80;99.90
52209;DHT22;38507;53.132;6.394;2023-03-14T02:22:12;9.80;99.90
52209;DHT22;38507;53.132;6.394;2023-03-14T02:24:56;9.80;99.90
52209;DHT22;38507;53.132;6.394;2023-03-14T02:27:25;9.70;99.90
52209;DHT22;38507;53.132;6.394;2023-03-14T02:32:27;10.40;99.90
52209;DHT22;38507;53.132;6.394;2023-03-14T02:34:56;9.70;99.90
52209;DHT22;38507;53.132;6.394;2023-03-14T02:37:27;9.80;99.90
52209;DHT22;38507;53.132;6.394;2023-03-14T02:39:55;10.00;99.90
52209;DHT22;38507;53.132;6.394;2023-03-14T02:42:21;9.70;99.90
52209;DHT22;38507;53.132;6.394;2023-03-14T02:44:50;10.20;99.90
52209;DHT22;38507;53.132;6.394;2023-03-14T02:47:16;9.70;99.90
52209;DHT22;38507;53.132;6.394;2023-03-14T02:49:42;10.00;99.90
52209;DHT22;38507;53.132;6.394;2023-03-14T02:52:08;10.10;99.90
52209;DHT22;38507;53.132;6.394;2023-03-14T02:54:33;9.80;99.90
52209;DHT22;38507;53.132;6.394;2023-03-14T02:56:59;10.30;99.90
52209;DHT22;38507;53.132;6.394;2023-03-14T02:59:24;9.50;99.90
52209;DHT22;38507;53.132;6.394;2023-03-14T03:01:50;9.40;99.90
52209;DHT22;38507;53.132;6.394;2023-03-14T03:04:16;9.40;99.90
52209;DHT22;38507;53.132;6.394;2023-03-14T03:06:41;9.70;99.90
52209;DHT22;38507;53.132;6.394;2023-03-14T03:09:07;9.30;99.90
52209;DHT22;38507;53.132;6.394;2023-03-14T03:11:33;9.20;99.90
52209;DHT22;38507;53.132;6.394;2023-03-14T03:13:59;9.20;99.90
52209;DHT22;38507;53.132;6.394;2023-03-14T03:16:24;9.80;99.90
52209;DHT22;38507;53.132;6.394;2023-03-14T03:18:50;9.10;99.90
52209;DHT22;38507;53.132;6.394;2023-03-14T03:21:16;9.30;99.90
52209;DHT22;38507;53.132;6.394;2023-03-14T03:23:41;9.00;99.90
52209;DHT22;38507;53.132;6.394;2023-03-14T03:26:09;9.00;99.90
52209;DHT22;38507;53.132;6.394;2023-03-14T03:28:36;9.00;99.90
52209;DHT22;38507;53.132;6.394;2023-03-14T03:31:11;9.00;99.90
52209;DHT22;38507;53.132;6.394;2023-03-14T03:33:37;9.30;99.90
52209;DHT22;38507;53.132;6.394;2023-03-14T03:36:03;9.20;99.90
52209;DHT22;38507;53.132;6.394;2023-03-14T03:38:29;8.90;99.90
52209;DHT22;38507;53.132;6.394;2023-03-14T03:40:55;8.90;99.90
52209;DHT22;38507;53.132;6.394;2023-03-14T03:43:20;8.40;99.90
52209;DHT22;38507;53.132;6.394;2023-03-14T03:45:46;9.50;99.90
52209;DHT22;38507;53.132;6.394;2023-03-14T03:48:12;9.00;99.90
52209;DHT22;38507;53.132;6.394;2023-03-14T03:50:44;8.90;99.90
52209;DHT22;38507;53.132;6.394;2023-03-14T03:53:09;9.40;99.90
52209;DHT22;38507;53.132;6.394;2023-03-14T03:55:35;8.90;99.90
52209;DHT22;38507;53.132;6.394;2023-03-14T03:58:00;8.90;99.90
52209;DHT22;38507;53.132;6.394;2023-03-14T04:00:26;8.80;99.90
52209;DHT22;38507;53.132;6.394;2023-03-14T04:02:52;9.00;99.90
52209;DHT22;38507;53.132;6.394;2023-03-14T04:05:18;8.90;99.90
52209;DHT22;38507;53.132;6.394;2023-03-14T04:07:43;8.80;99.90
52209;DHT22;38507;53.132;6.394;2023-03-14T04:10:09;8.80;99.90
52209;DHT22;38507;53.132;6.394;2023-03-14T04:12:35;8.90;99.90
52209;DHT22;38507;53.132;6.394;2023-03-14T04:15:01;8.80;99.90
52209;DHT22;38507;53.132;6.394;2023-03-14T04:17:26;8.80;99.90
52209;DHT22;38507;53.132;6.394;2023-03-14T04:19:52;8.80;99.90
52209;DHT22;38507;53.132;6.394;2023-03-14T04:22:19;8.90;99.90
52209;DHT22;38507;53.132;6.394;2023-03-14T04:24:45;9.40;99.90
52209;DHT22;38507;53.132;6.394;2023-03-14T04:27:10;9.60;99.90
52209;DHT22;38507;53.132;6.394;2023-03-14T04:29:36;8.80;99.90
52209;DHT22;38507;53.132;6.394;2023-03-14T04:32:02;8.80;99.90
52209;DHT22;38507;53.132;6.394;2023-03-14T04:34:27;8.80;99.90
52209;DHT22;38507;53.132;6.394;2023-03-14T04:36:53;8.80;99.90
52209;DHT22;38507;53.132;6.394;2023-03-14T04:39:18;8.80;99.90
52209;DHT22;38507;53.132;6.394;2023-03-14T04:41:44;8.70;99.90
52209;DHT22;38507;53.132;6.394;2023-03-14T04:44:10;8.70;99.90
52209;DHT22;38507;53.132;6.394;2023-03-14T04:46:36;8.70;99.90
52209;DHT22;38507;53.132;6.394;2023-03-14T04:49:01;8.80;99.90
52209;DHT22;38507;53.132;6.394;2023-03-14T04:51:27;8.70;99.90
52209;DHT22;38507;53.132;6.394;2023-03-14T04:53:53;8.70;99.90
52209;DHT22;38507;53.132;6.394;2023-03-14T04:56:19;8.70;99.90
52209;DHT22;38507;53.132;6.394;2023-03-14T04:58:45;9.40;99.90
52209;DHT22;38507;53.132;6.394;2023-03-14T05:01:11;8.70;99.90
52209;DHT22;38507;53.132;6.394;2023-03-14T05:03:37;8.70;99.90
52209;DHT22;38507;53.132;6.394;2023-03-14T05:06:04;8.70;99.90
52209;DHT22;38507;53.132;6.394;2023-03-14T05:08:30;8.70;99.90
52209;DHT22;38507;53.132;6.394;2023-03-14T05:10:56;8.60;99.90
52209;DHT22;38507;53.132;6.394;2023-03-14T05:13:22;8.60;99.90
52209;DHT22;38507;53.132;6.394;2023-03-14T05:15:48;8.60;99.90
52209;DHT22;38507;53.132;6.394;2023-03-14T05:18:14;9.60;99.90
52209;DHT22;38507;53.132;6.394;2023-03-14T05:20:39;8.60;99.90
52209;DHT22;38507;53.132;6.394;2023-03-14T05:23:05;8.60;99.90
52209;DHT22;38507;53.132;6.394;2023-03-14T05:25:31;8.60;99.90
52209;DHT22;38507;53.132;6.394;2023-03-14T05:27:56;8.60;99.90
52209;DHT22;38507;53.132;6.394;2023-03-14T05:30:22;8.60;99.90
52209;DHT22;38507;53.132;6.394;2023-03-14T05:32:48;8.60;99.90
52209;DHT22;38507;53.132;6.394;2023-03-14T05:35:14;8.60;99.90
52209;DHT22;38507;53.132;6.394;2023-03-14T05:37:40;8.60;99.90
52209;DHT22;38507;53.132;6.394;2023-03-14T05:40:06;8.50;99.90
52209;DHT22;38507;53.132;6.394;2023-03-14T05:42:32;8.50;99.90
52209;DHT22;38507;53.132;6.394;2023-03-14T05:44:58;8.90;99.90
52209;DHT22;38507;53.132;6.394;2023-03-14T05:47:24;8.60;99.90
52209;DHT22;38507;53.132;6.394;2023-03-14T05:49:50;9.20;99.90
52209;DHT22;38507;53.132;6.394;2023-03-14T05:52:16;8.50;99.90
52209;DHT22;38507;53.132;6.394;2023-03-14T05:54:41;9.40;99.90
52209;DHT22;38507;53.132;6.394;2023-03-14T05:57:07;8.70;99.90
52209;DHT22;38507;53.132;6.394;2023-03-14T05:59:32;8.70;99.90
52209;DHT22;38507;53.132;6.394;2023-03-14T06:01:58;9.10;99.90
52209;DHT22;38507;53.132;6.394;2023-03-14T06:04:24;8.60;99.90
52209;DHT22;38507;53.132;6.394;2023-03-14T06:06:50;8.60;99.90
52209;DHT22;38507;53.132;6.394;2023-03-14T06:09:15;8.60;99.90
52209;DHT22;38507;53.132;6.394;2023-03-14T06:11:41;9.40;99.90
52209;DHT22;38507;53.132;6.394;2023-03-14T06:14:07;8.60;99.90
52209;DHT22;38507;53.132;6.394;2023-03-14T06:16:32;8.90;99.90
52209;DHT22;38507;53.132;6.394;2023-03-14T06:18:58;8.60;99.90
52209;DHT22;38507;53.132;6.394;2023-03-14T06:21:24;8.60;99.90
52209;DHT22;38507;53.132;6.394;2023-03-14T06:23:50;8.60;99.90
52209;DHT22;38507;53.132;6.394;2023-03-14T06:26:16;9.40;99.90
52209;DHT22;38507;53.132;6.394;2023-03-14T06:28:41;8.60;99.90
52209;DHT22;38507;53.132;6.394;2023-03-14T06:31:07;8.60;99.90
52209;DHT22;38507;53.132;6.394;2023-03-14T06:33:32;8.00;99.90
52209;DHT22;38507;53.132;6.394;2023-03-14T06:35:59;8.30;99.90
52209;DHT22;38507;53.132;6.394;2023-03-14T06:38:25;7.60;99.90
52209;DHT22;38507;53.132;6.394;2023-03-14T06:40:50;7.40;99.90
52209;DHT22;38507;53.132;6.394;2023-03-14T06:43:16;7.30;99.90
52209;DHT22;38507;53.132;6.394;2023-03-14T06:45:42;7.20;99.90
52209;DHT22;38507;53.132;6.394;2023-03-14T06:48:07;7.10;99.90
52209;DHT22;38507;53.132;6.394;2023-03-14T06:50:33;7.00;99.90
52209;DHT22;38507;53.132;6.394;2023-03-14T06:52:59;6.90;99.90
52209;DHT22;38507;53.132;6.394;2023-03-14T06:55:24;6.70;99.90
52209;DHT22;38507;53.132;6.394;2023-03-14T06:57:51;7.20;99.90
52209;DHT22;38507;53.132;6.394;2023-03-14T07:00:17;6.50;99.90
52209;DHT22;38507;53.132;6.394;2023-03-14T07:02:42;6.40;99.90
52209;DHT22;38507;53.132;6.394;2023-03-14T07:05:08;6.20;99.90
52209;DHT22;38507;53.132;6.394;2023-03-14T07:07:35;6.00;99.90
52209;DHT22;38507;53.132;6.394;2023-03-14T07:10:01;5.90;99.90
52209;DHT22;38507;53.132;6.394;2023-03-14T07:12:27;5.70;99.90
52209;DHT22;38507;53.132;6.394;2023-03-14T07:14:52;5.60;99.90
52209;DHT22;38507;53.132;6.394;2023-03-14T07:17:18;5.40;99.90
52209;DHT22;38507;53.132;6.394;2023-03-14T07:19:43;5.30;99.90
52209;DHT22;38507;53.132;6.394;2023-03-14T07:22:09;5.00;99.90
52209;DHT22;38507;53.132;6.394;2023-03-14T07:24:35;5.00;99.90
52209;DHT22;38507;53.132;6.394;2023-03-14T07:27:00;4.90;99.90
52209;DHT22;38507;53.132;6.394;2023-03-14T07:29:26;4.90;99.90
52209;DHT22;38507;53.132;6.394;2023-03-14T07:31:52;4.80;99.90
52209;DHT22;38507;53.132;6.394;2023-03-14T07:34:17;4.70;99.90
52209;DHT22;38507;53.132;6.394;2023-03-14T07:36:44;4.70;99.90
52209;DHT22;38507;53.132;6.394;2023-03-14T07:39:10;4.60;99.90
52209;DHT22;38507;53.132;6.394;2023-03-14T07:41:35;4.60;99.90
52209;DHT22;38507;53.132;6.394;2023-03-14T07:44:01;4.60;99.90
52209;DHT22;38507;53.132;6.394;2023-03-14T07:46:27;4.60;99.90
52209;DHT22;38507;53.132;6.394;2023-03-14T07:48:52;4.50;99.90
52209;DHT22;38507;53.132;6.394;2023-03-14T07:51:18;4.50;99.90
52209;DHT22;38507;53.132;6.394;2023-03-14T07:53:44;4.50;99.90
52209;DHT22;38507;53.132;6.394;2023-03-14T07:56:09;4.50;99.90
52209;DHT22;38507;53.132;6.394;2023-03-14T07:58:35;4.50;99.90
52209;DHT22;38507;53.132;6.394;2023-03-14T08:01:00;4.60;99.90
52209;DHT22;38507;53.132;6.394;2023-03-14T08:03:26;4.50;99.90
52209;DHT22;38507;53.132;6.394;2023-03-14T08:05:52;4.60;99.90
52209;DHT22;38507;53.132;6.394;2023-03-14T08:08:18;4.60;99.90
52209;DHT22;38507;53.132;6.394;2023-03-14T08:10:45;4.70;99.90
52209;DHT22;38507;53.132;6.394;2023-03-14T08:13:11;4.60;99.90
52209;DHT22;38507;53.132;6.394;2023-03-14T08:15:37;4.70;99.90
52209;DHT22;38507;53.132;6.394;2023-03-14T08:18:04;4.70;99.90
52209;DHT22;38507;53.132;6.394;2023-03-14T08:20:30;4.80;99.90
52209;DHT22;38507;53.132;6.394;2023-03-14T08:23:00;4.80;99.90
52209;DHT22;38507;53.132;6.394;2023-03-14T08:25:27;4.90;99.90
52209;DHT22;38507;53.132;6.394;2023-03-14T08:27:53;4.90;99.90
52209;DHT22;38507;53.132;6.394;2023-03-14T08:30:20;5.00;99.90
52209;DHT22;38507;53.132;6.394;2023-03-14T08:32:46;5.00;99.90
52209;DHT22;38507;53.132;6.394;2023-03-14T08:35:13;5.10;99.90
52209;DHT22;38507;53.132;6.394;2023-03-14T08:37:39;5.10;99.90
52209;DHT22;38507;53.132;6.394;2023-03-14T08:40:06;5.20;99.90
52209;DHT22;38507;53.132;6.394;2023-03-14T08:42:33;5.30;99.90
52209;DHT22;38507;53.132;6.394;2023-03-14T08:44:59;6.00;99.90
52209;DHT22;38507;53.132;6.394;2023-03-14T08:47:25;5.50;99.90
52209;DHT22;38507;53.132;6.394;2023-03-14T08:49:50;5.60;99.90
52209;DHT22;38507;53.132;6.394;2023-03-14T08:52:16;5.60;99.90
52209;DHT22;38507;53.132;6.394;2023-03-14T08:54:45;5.70;99.90
52209;DHT22;38507;53.132;6.394;2023-03-14T08:57:11;5.70;99.90
52209;DHT22;38507;53.132;6.394;2023-03-14T08:59:36;5.70;99.90
52209;DHT22;38507;53.132;6.394;2023-03-14T09:02:03;5.70;99.90
52209;DHT22;38507;53.132;6.394;2023-03-14T09:04:29;5.90;99.90
52209;DHT22;38507;53.132;6.394;2023-03-14T09:06:55;5.90;99.90
52209;DHT22;38507;53.132;6.394;2023-03-14T09:09:24;6.00;99.90
52209;DHT22;38507;53.132;6.394;2023-03-14T09:11:49;6.80;99.90
52209;DHT22;38507;53.132;6.394;2023-03-14T09:14:15;6.20;99.90
52209;DHT22;38507;53.132;6.394;2023-03-14T09:16:41;6.30;99.90
52209;DHT22;38507;53.132;6.394;2023-03-14T09:19:06;6.40;99.90
52209;DHT22;38507;53.132;6.394;2023-03-14T09:21:32;6.50;99.90
52209;DHT22;38507;53.132;6.394;2023-03-14T09:23:58;7.70;99.90
52209;DHT22;38507;53.132;6.394;2023-03-14T09:26:23;6.70;99.90
52209;DHT22;38507;53.132;6.394;2023-03-14T09:28:49;6.60;99.90
52209;DHT22;38507;53.132;6.394;2023-03-14T09:31:15;6.70;99.90
52209;DHT22;38507;53.132;6.394;2023-03-14T09:33:40;6.40;99.90
52209;DHT22;38507;53.132;6.394;2023-03-14T09:36:07;6.30;99.90
52209;DHT22;38507;53.132;6.394;2023-03-14T09:38:33;6.20;99.90
52209;DHT22;38507;53.132;6.394;2023-03-14T09:41:01;6.20;99.90
52209;DHT22;38507;53.132;6.394;2023-03-14T09:43:29;6.20;99.90
52209;DHT22;38507;53.132;6.394;2023-03-14T09:45:58;6.20;99.90
52209;DHT22;38507;53.132;6.394;2023-03-14T09:48:33;6.20;99.90
52209;DHT22;38507;53.132;6.394;2023-03-14T09:51:05;6.20;99.90
52209;DHT22;38507;53.132;6.394;2023-03-14T09:53:46;6.20;99.90
52209;DHT22;38507;53.132;6.394;2023-03-14T09:56:25;6.20;99.90
52209;DHT22;38507;53.132;6.394;2023-03-14T09:58:59;6.10;99.90
52209;DHT22;38507;53.132;6.394;2023-03-14T10:01:30;6.10;99.90
52209;DHT22;38507;53.132;6.394;2023-03-14T10:04:00;6.00;99.90
52209;DHT22;38507;53.132;6.394;2023-03-14T10:06:29;6.00;99.90
52209;DHT22;38507;53.132;6.394;2023-03-14T10:08:55;6.10;99.90
52209;DHT22;38507;53.132;6.394;2023-03-14T10:11:22;6.10;99.90
52209;DHT22;38507;53.132;6.394;2023-03-14T10:14:01;6.10;99.90
52209;DHT22;38507;53.132;6.394;2023-03-14T10:16:33;6.10;99.90
52209;DHT22;38507;53.132;6.394;2023-03-14T10:19:04;6.20;99.90
52209;DHT22;38507;53.132;6.394;2023-03-14T10:21:32;6.30;99.90
52209;DHT22;38507;53.132;6.394;2023-03-14T10:24:20;6.30;99.90
52209;DHT22;38507;53.132;6.394;2023-03-14T10:26:53;6.40;99.90
52209;DHT22;38507;53.132;6.394;2023-03-14T10:29:19;6.50;99.90
52209;DHT22;38507;53.132;6.394;2023-03-14T10:34:25;6.50;99.90
52209;DHT22;38507;53.132;6.394;2023-03-14T10:36:58;6.50;99.90
52209;DHT22;38507;53.132;6.394;2023-03-14T10:39:45;6.50;99.90
52209;DHT22;38507;53.132;6.394;2023-03-14T10:42:16;6.50;99.90
52209;DHT22;38507;53.132;6.394;2023-03-14T10:44:44;6.60;99.90
52209;DHT22;38507;53.132;6.394;2023-03-14T10:47:19;6.90;99.90
52209;DHT22;38507;53.132;6.394;2023-03-14T10:49:47;7.40;99.90
52209;DHT22;38507;53.132;6.394;2023-03-14T10:52:14;7.10;99.90
52209;DHT22;38507;53.132;6.394;2023-03-14T10:54:40;6.80;99.90
52209;DHT22;38507;53.132;6.394;2023-03-14T10:57:06;6.70;99.90
52209;DHT22;38507;53.132;6.394;2023-03-14T10:59:37;6.60;99.90
52209;DHT22;38507;53.132;6.394;2023-03-14T11:07:54;7.10;99.90
52209;DHT22;38507;53.132;6.394;2023-03-14T11:10:33;7.00;99.90
52209;DHT22;38507;53.132;6.394;2023-03-14T11:15:34;7.10;99.90
52209;DHT22;38507;53.132;6.394;2023-03-14T11:21:01;6.80;99.90
52209;DHT22;38507;53.132;6.394;2023-03-14T11:23:37;6.70;99.90
52209;DHT22;38507;53.132;6.394;2023-03-14T11:26:32;6.70;99.90
52209;DHT22;38507;53.132;6.394;2023-03-14T11:29:21;6.70;99.90
52209;DHT22;38507;53.132;6.394;2023-03-14T11:31:53;6.90;99.90
52209;DHT22;38507;53.132;6.394;2023-03-14T11:37:06;7.40;99.90
52209;DHT22;38507;53.132;6.394;2023-03-14T11:39:45;7.70;99.90
52209;DHT22;38507;53.132;6.394;2023-03-14T11:42:16;7.50;99.90
52209;DHT22;38507;53.132;6.394;2023-03-14T11:44:48;7.30;99.90
52209;DHT22;38507;53.132;6.394;2023-03-14T11:47:30;7.20;99.90
52209;DHT22;38507;53.132;6.394;2023-03-14T11:50:22;7.40;99.90
52209;DHT22;38507;53.132;6.394;2023-03-14T11:52:56;7.50;99.90
52209;DHT22;38507;53.132;6.394;2023-03-14T11:55:35;7.50;99.90
52209;DHT22;38507;53.132;6.394;2023-03-14T11:58:17;7.80;99.90
52209;DHT22;38507;53.132;6.394;2023-03-14T12:00:47;7.90;99.90
52209;DHT22;38507;53.132;6.394;2023-03-14T12:03:21;8.20;99.90
52209;DHT22;38507;53.132;6.394;2023-03-14T12:11:19;7.90;99.90
52209;DHT22;38507;53.132;6.394;2023-03-14T12:13:51;7.70;99.90
52209;DHT22;38507;53.132;6.394;2023-03-14T12:18:49;7.60;99.90
52209;DHT22;38507;53.132;6.394;2023-03-14T12:21:15;7.80;99.90
52209;DHT22;38507;53.132;6.394;2023-03-14T12:26:21;8.10;99.90
52209;DHT22;38507;53.132;6.394;2023-03-14T12:39:39;8.40;99.90
52209;DHT22;38507;53.132;6.394;2023-03-14T12:42:22;7.70;99.90
52209;DHT22;38507;53.132;6.394;2023-03-14T12:50:56;7.80;99.90
52209;DHT22;38507;53.132;6.394;2023-03-14T12:56:22;8.10;99.90
52209;DHT22;38507;53.132;6.394;2023-03-14T13:01:26;7.60;99.90
52209;DHT22;38507;53.132;6.394;2023-03-14T13:03:57;7.80;99.90
52209;DHT22;38507;53.132;6.394;2023-03-14T13:06:55;8.10;99.90
52209;DHT22;38507;53.132;6.394;2023-03-14T13:12:16;8.40;99.90
52209;DHT22;38507;53.132;6.394;2023-03-14T13:14:49;8.70;99.90
52209;DHT22;38507;53.132;6.394;2023-03-14T13:17:27;8.00;99.90
52209;DHT22;38507;53.132;6.394;2023-03-14T13:19:55;8.00;99.90
52209;DHT22;38507;53.132;6.394;2023-03-14T13:22:23;8.00;99.90
52209;DHT22;38507;53.132;6.394;2023-03-14T13:24:50;8.40;99.90
52209;DHT22;38507;53.132;6.394;2023-03-14T13:27:17;8.00;99.90
52209;DHT22;38507;53.132;6.394;2023-03-14T13:29:43;8.00;99.90
52209;DHT22;38507;53.132;6.394;2023-03-14T13:34:44;7.80;99.70
52209;DHT22;38507;53.132;6.394;2023-03-14T13:37:28;8.60;99.90
52209;DHT22;38507;53.132;6.394;2023-03-14T13:39:56;8.30;99.90
52209;DHT22;38507;53.132;6.394;2023-03-14T13:42:24;8.20;99.90
52209;DHT22;38507;53.132;6.394;2023-03-14T13:44:51;7.90;99.90
52209;DHT22;38507;53.132;6.394;2023-03-14T13:47:18;8.00;99.90
52209;DHT22;38507;53.132;6.394;2023-03-14T13:49:45;7.90;99.90
52209;DHT22;38507;53.132;6.394;2023-03-14T13:54:52;7.60;99.90
52209;DHT22;38507;53.132;6.394;2023-03-14T13:57:17;7.70;99.90
52209;DHT22;38507;53.132;6.394;2023-03-14T13:59:43;7.20;99.90
52209;DHT22;38507;53.132;6.394;2023-03-14T14:02:14;7.60;99.90
52209;DHT22;38507;53.132;6.394;2023-03-14T14:04:40;6.80;99.90
52209;DHT22;38507;53.132;6.394;2023-03-14T14:07:15;6.60;99.90
52209;DHT22;38507;53.132;6.394;2023-03-14T14:09:49;6.60;99.90
52209;DHT22;38507;53.132;6.394;2023-03-14T14:14:52;6.50;99.90
52209;DHT22;38507;53.132;6.394;2023-03-14T14:17:20;7.40;99.90
52209;DHT22;38507;53.132;6.394;2023-03-14T14:19:46;7.10;99.90
52209;DHT22;38507;53.132;6.394;2023-03-14T14:22:12;7.00;99.90
52209;DHT22;38507;53.132;6.394;2023-03-14T14:24:37;6.80;99.90
52209;DHT22;38507;53.132;6.394;2023-03-14T14:27:19;6.70;99.90
52209;DHT22;38507;53.132;6.394;2023-03-14T14:30:00;6.50;99.90
52209;DHT22;38507;53.132;6.394;2023-03-14T14:32:26;6.40;99.90
52209;DHT22;38507;53.132;6.394;2023-03-14T14:37:34;6.30;99.90
52209;DHT22;38507;53.132;6.394;2023-03-14T14:40:07;6.30;99.90
52209;DHT22;38507;53.132;6.394;2023-03-14T14:42:33;6.30;99.90
52209;DHT22;38507;53.132;6.394;2023-03-14T14:44:59;6.20;99.90
52209;DHT22;38507;53.132;6.394;2023-03-14T14:47:25;6.20;99.90
52209;DHT22;38507;53.132;6.394;2023-03-14T14:49:53;6.60;99.90
52209;DHT22;38507;53.132;6.394;2023-03-14T14:52:30;6.20;99.90
52209;DHT22;38507;53.132;6.394;2023-03-14T14:54:59;6.80;99.90
52209;DHT22;38507;53.132;6.394;2023-03-14T14:57:26;6.70;99.90
52209;DHT22;38507;53.132;6.394;2023-03-14T15:00:06;6.90;99.90
52209;DHT22;38507;53.132;6.394;2023-03-14T15:02:37;7.90;99.90
52209;DHT22;38507;53.132;6.394;2023-03-14T15:05:15;7.40;99.90
52209;DHT22;38507;53.132;6.394;2023-03-14T15:07:41;7.40;99.90
52209;DHT22;38507;53.132;6.394;2023-03-14T15:10:09;7.30;99.90
52209;DHT22;38507;53.132;6.394;2023-03-14T15:12:35;7.30;99.90
52209;DHT22;38507;53.132;6.394;2023-03-14T15:15:01;7.30;99.90
52209;DHT22;38507;53.132;6.394;2023-03-14T15:17:26;7.30;99.90
52209;DHT22;38507;53.132;6.394;2023-03-14T15:19:52;7.20;99.90
52209;DHT22;38507;53.132;6.394;2023-03-14T15:22:18;7.40;99.90
52209;DHT22;38507;53.132;6.394;2023-03-14T15:24:44;7.20;99.90
52209;DHT22;38507;53.132;6.394;2023-03-14T15:27:13;7.30;99.90
52209;DHT22;38507;53.132;6.394;2023-03-14T15:29:39;7.10;99.90
52209;DHT22;38507;53.132;6.394;2023-03-14T15:32:05;6.70;99.90
52209;DHT22;38507;53.132;6.394;2023-03-14T15:34:32;6.50;99.90
52209;DHT22;38507;53.132;6.394;2023-03-14T15:36:57;7.00;99.90
52209;DHT22;38507;53.132;6.394;2023-03-14T15:39:23;6.10;99.90
52209;DHT22;38507;53.132;6.394;2023-03-14T15:41:48;6.00;99.90
52209;DHT22;38507;53.132;6.394;2023-03-14T15:44:14;5.90;99.90
52209;DHT22;38507;53.132;6.394;2023-03-14T15:46:39;5.70;99.90
52209;DHT22;38507;53.132;6.394;2023-03-14T15:49:05;5.70;99.90
52209;DHT22;38507;53.132;6.394;2023-03-14T15:51:30;5.50;99.90
52209;DHT22;38507;53.132;6.394;2023-03-14T15:53:56;5.90;99.90
52209;DHT22;38507;53.132;6.394;2023-03-14T15:56:22;5.40;99.90
52209;DHT22;38507;53.132;6.394;2023-03-14T15:58:50;6.10;99.90
52209;DHT22;38507;53.132;6.394;2023-03-14T16:01:16;5.40;99.90
52209;DHT22;38507;53.132;6.394;2023-03-14T16:03:42;5.30;99.90
52209;DHT22;38507;53.132;6.394;2023-03-14T16:06:09;5.50;99.90
52209;DHT22;38507;53.132;6.394;2023-03-14T16:08:34;5.50;99.90
52209;DHT22;38507;53.132;6.394;2023-03-14T16:11:00;5.10;99.90
52209;DHT22;38507;53.132;6.394;2023-03-14T16:13:26;4.90;99.90
52209;DHT22;38507;53.132;6.394;2023-03-14T16:15:56;4.70;99.90
52209;DHT22;38507;53.132;6.394;2023-03-14T16:18:22;4.40;99.90
52209;DHT22;38507;53.132;6.394;2023-03-14T16:20:52;4.40;99.90
52209;DHT22;38507;53.132;6.394;2023-03-14T16:23:17;4.50;99.90
52209;DHT22;38507;53.132;6.394;2023-03-14T16:25:43;4.30;99.90
52209;DHT22;38507;53.132;6.394;2023-03-14T16:28:09;4.30;99.90
52209;DHT22;38507;53.132;6.394;2023-03-14T16:30:34;4.40;99.90
52209;DHT22;38507;53.132;6.394;2023-03-14T16:33:00;4.30;99.90
52209;DHT22;38507;53.132;6.394;2023-03-14T16:35:26;4.30;99.90
52209;DHT22;38507;53.132;6.394;2023-03-14T16:37:52;4.30;99.90
52209;DHT22;38507;53.132;6.394;2023-03-14T16:40:17;4.30;99.90
52209;DHT22;38507;53.132;6.394;2023-03-14T16:42:43;4.30;99.90
52209;DHT22;38507;53.132;6.394;2023-03-14T16:45:09;4.30;99.90
52209;DHT22;38507;53.132;6.394;2023-03-14T16:47:34;4.30;99.90
52209;DHT22;38507;53.132;6.394;2023-03-14T16:50:00;4.30;99.90
52209;DHT22;38507;53.132;6.394;2023-03-14T16:52:27;4.20;99.90
52209;DHT22;38507;53.132;6.394;2023-03-14T16:54:53;4.20;99.90
52209;DHT22;38507;53.132;6.394;2023-03-14T16:57:18;4.20;99.90